EDT,Max TemperatureF,Mean TemperatureF,Min TemperatureF,Max Dew PointF,MeanDew PointF,Min DewpointF,Max Humidity, Mean Humidity, Min Humidity, Max Sea Level PressureIn, Mean Sea Level PressureIn, Min Sea Level PressureIn, Max VisibilityMiles, Mean VisibilityMiles, Min VisibilityMiles, Max Wind SpeedMPH, Mean Wind SpeedMPH, Max Gust SpeedMPH,PrecipitationIn, CloudCover, Events, WindDirDegrees
2011-10-1,60,49,38,43,38,34,92,65,37,30.26,30.19,30.11,10,10,10,20,8,26,T,2,,359
2011-10-2,68,51,34,44,37,32,100,64,28,30.27,30.22,30.15,10,9,2,16,4,21,0.00,0,,345
2011-10-3,76,57,37,48,41,36,100,67,33,30.23,30.18,30.15,10,10,9,15,5,22,0.00,0,,6
2011-10-4,78,60,41,49,43,39,100,63,26,30.32,30.26,30.22,10,5,0,7,1,9,0.00,1,Fog,30
2011-10-5,82,64,46,56,48,44,93,62,31,30.30,30.24,30.19,10,10,10,6,0,8,0.00,0,,-1
2011-10-6,83,66,49,57,51,47,96,65,33,30.31,30.25,30.22,10,10,7,10,3,16,0.00,0,,145
2011-10-7,86,69,51,54,51,47,86,58,29,30.36,30.29,30.25,10,10,10,13,3,16,0.00,0,,136
2011-10-8,84,68,51,57,53,48,89,63,37,30.37,30.31,30.28,10,10,10,13,3,18,0.00,0,,172
2011-10-9,83,68,52,58,51,45,93,62,31,30.38,30.30,30.23,10,9,4,13,3,16,0.00,0,,111
2011-10-10,81,66,50,54,51,48,89,62,35,30.23,30.16,30.07,10,10,10,14,3,18,0.00,0,,135
2011-10-11,83,67,50,54,49,42,93,60,26,30.06,29.98,29.92,10,10,10,13,3,17,0.00,1,,125
2011-10-12,77,65,52,56,51,45,89,64,38,29.91,29.82,29.71,10,10,10,16,5,25,0.00,2,,139
2011-10-13,65,60,55,61,58,52,93,86,78,29.67,29.55,29.48,10,6,2,25,6,36,0.31,8,Rain,222
2011-10-14,64,56,48,47,43,40,86,66,46,29.76,29.66,29.55,10,10,10,24,13,37,T,3,Rain-Thunderstorm,283
2011-10-15,64,55,45,41,39,36,76,56,36,29.95,29.88,29.76,10,10,10,29,13,44,0.00,0,,277
2011-10-16,69,58,46,47,41,37,66,55,44,29.96,29.85,29.75,10,10,10,22,8,26,0.00,2,,265
2011-10-17,61,49,36,41,33,28,85,59,32,29.96,29.91,29.86,10,10,10,18,8,22,0.05,3,,265
2011-10-18,48,47,45,45,43,41,93,85,77,29.89,29.82,29.76,10,8,3,10,3,14,0.21,8,Rain,288
2011-10-19,48,47,45,45,44,41,93,90,86,29.75,29.54,29.42,10,7,2,23,15,31,1.26,8,Rain,2
2011-10-20,47,45,42,43,40,37,92,82,71,29.91,29.59,29.41,10,9,6,26,16,37,0.37,8,Rain,306
2011-10-21,56,45,34,38,36,33,92,70,47,30.13,30.06,29.93,10,10,10,14,5,18,0.00,0,,284
2011-10-22,66,48,30,39,35,30,96,66,36,30.14,30.10,30.05,10,9,1,12,3,15,0.00,0,,231
2011-10-23,70,57,43,49,43,37,86,63,39,30.04,29.99,29.95,10,10,9,13,3,17,T,3,Rain,236
2011-10-24,65,54,43,51,44,33,89,62,34,30.17,30.04,29.92,10,9,5,23,6,32,0.05,3,Rain-Thunderstorm,292
2011-10-25,76,59,42,49,40,34,76,56,35,30.17,30.03,29.80,10,10,10,21,9,31,0.00,0,,202
2011-10-26,71,60,49,52,48,43,93,64,35,29.91,29.84,29.76,10,8,3,21,9,32,0.12,6,Rain,325
2011-10-27,51,43,35,46,41,34,93,77,61,30.18,29.98,29.87,10,9,2,18,7,23,0.10,7,Rain,360
2011-10-28,56,44,31,39,33,28,100,71,41,30.24,30.17,30.10,10,5,0,7,1,10,0.00,2,Fog,189
2011-10-29,58,45,32,35,30,26,92,61,30,30.16,30.09,30.05,10,10,8,16,5,35,0.00,2,,280
2011-10-30,61,45,29,37,30,27,92,60,28,30.19,30.12,30.01,10,10,9,23,8,29,T,3,,199
2011-10-31,59,47,35,43,37,33,96,68,40,30.18,30.06,29.99,10,9,5,22,4,25,0.02,3,Rain,267